CheckWX is a tool to help pilots better visualize weather data.  It is not intended as a substitute for an official pre-flight weather briefing.

20:22:46 UTC

KPUW TAF
Pullman / Moscow Regional Airport
Pullman/Moscow, Washington, USA
KPUW 251736Z 2518/2618 11008KT P6SM SCT150 BKN250 FM260500 VRB03KT P6SM SCT100 BKN150 FM261200 24007KT P6SM VCSH SCT050 BKN100 FM261700 25017G23KT P6SM OVC050

Apr-25@
18:00 UTC

Apr-25 @ 18:00 UTC

Apr-26@
05:00 UTC

Apr-26 @ 05:00 UTC

KPUW 251736Z 2518/2618 11008KT P6SM SCT150 BKN250
Wind
  • 110° at 8 KTS
Cloud Levels
  • Scattered at 15,000' AGL
  • Broken at 25,000' AGL

Apr-26@
05:00 UTC

Apr-26 @ 05:00 UTC

Apr-26@
12:00 UTC

Apr-26 @ 12:00 UTC

FM260500 VRB03KT P6SM SCT100 BKN150

From

From Standard forecast or significant change

Wind
  • Variable at 3 KTS
Cloud Levels
  • Scattered at 10,000' AGL
  • Broken at 15,000' AGL

Apr-26@
12:00 UTC

Apr-26 @ 12:00 UTC

Apr-26@
17:00 UTC

Apr-26 @ 17:00 UTC

FM261200 24007KT P6SM VCSH SCT050 BKN100

From

From Standard forecast or significant change

Wind
  • 240° at 7 KTS
Cloud Levels
  • Scattered at 5,000' AGL
  • Broken at 10,000' AGL

Apr-26@
17:00 UTC

Apr-26 @ 17:00 UTC

Apr-26@
18:00 UTC

Apr-26 @ 18:00 UTC

FM261700 25017G23KT P6SM OVC050

From

From Standard forecast or significant change

Wind
  • 250° at 17 KTS
  • {Gusting to 23 KTS
Cloud Levels
  • Overcast at 5,000' AGL